Time;durP1;ratioP1;P1;durP2;ratioP2;P2;SDS_P1;SDS_P2;PMS_P1;PMS_P2;Temp;Humidity;BMP_temperature;BMP_pressure;BME280_temperature;BME280_humidity;BME280_pressure;Samples;Min_cycle;Max_cycle;Signal;HPM_P1;HPM_P2
2021/12/11 00:01:47;;;;;;;19.13;10.87;;;3.60;99.90;;;;;;4913739;29;20247;-75
2021/12/11 00:04:19;;;;;;;22.77;11.63;;;3.60;99.90;;;;;;4927354;29;20287;-73
2021/12/11 00:06:52;;;;;;;19.80;11.57;;;3.60;99.90;;;;;;4930336;29;20621;-73
2021/12/11 00:09:24;;;;;;;19.93;11.10;;;3.70;99.90;;;;;;4933453;29;20205;-74
2021/12/11 00:11:58;;;;;;;18.33;10.50;;;3.60;99.90;;;;;;4916580;29;20217;-73
2021/12/11 00:14:28;;;;;;;20.23;11.50;;;3.60;99.90;;;;;;4927210;29;20207;-73
2021/12/11 00:16:55;;;;;;;20.83;11.30;;;3.50;99.90;;;;;;4932145;29;20239;-73
2021/12/11 00:19:26;;;;;;;20.13;10.57;;;3.40;99.90;;;;;;4912481;29;20255;-74
2021/12/11 00:21:55;;;;;;;23.80;11.90;;;3.50;99.90;;;;;;4930847;29;20218;-73
2021/12/11 00:24:26;;;;;;;21.93;11.73;;;3.70;99.90;;;;;;4925655;29;20248;-73
2021/12/11 00:27:09;;;;;;;19.70;10.70;;;3.70;99.90;;;;;;4917671;29;20205;-73
2021/12/11 00:29:37;;;;;;;21.77;11.20;;;3.50;99.90;;;;;;4929921;29;20201;-72
2021/12/11 00:32:21;;;;;;;22.10;11.27;;;3.50;99.90;;;;;;4912788;29;20545;-72
2021/12/11 00:34:48;;;;;;;20.73;10.80;;;3.80;99.90;;;;;;4930104;29;20203;-74
2021/12/11 00:37:18;;;;;;;23.07;10.90;;;3.50;99.90;;;;;;4919076;29;20219;-72
2021/12/11 00:39:51;;;;;;;18.93;11.30;;;3.60;99.90;;;;;;4927744;29;20211;-73
2021/12/11 00:42:21;;;;;;;18.27;10.67;;;3.60;99.90;;;;;;4910327;29;20223;-73
2021/12/11 00:44:51;;;;;;;20.07;10.93;;;3.70;99.90;;;;;;4923196;29;20230;-73
2021/12/11 00:47:21;;;;;;;18.53;10.47;;;3.70;99.90;;;;;;4913836;29;20205;-73
2021/12/11 00:50:00;;;;;;;18.00;10.10;;;3.70;99.90;;;;;;4906625;29;20204;-72
2021/12/11 00:52:35;;;;;;;18.07;10.40;;;3.70;99.90;;;;;;4924660;29;20218;-73
2021/12/11 00:55:08;;;;;;;22.23;11.33;;;3.60;99.90;;;;;;4928444;29;20207;-73
2021/12/11 00:57:35;;;;;;;18.43;10.77;;;3.70;99.90;;;;;;4926962;29;20208;-74
2021/12/11 01:00:11;;;;;;;20.07;11.33;;;3.80;99.90;;;;;;4918144;29;20657;-71
2021/12/11 01:02:39;;;;;;;18.00;10.20;;;3.70;99.90;;;;;;4929093;29;20225;-73
2021/12/11 01:05:09;;;;;;;19.10;10.60;;;3.70;99.90;;;;;;4916444;29;20206;-73
2021/12/11 01:07:37;;;;;;;17.90;10.20;;;3.80;99.90;;;;;;4913376;29;20210;-74
2021/12/11 01:10:10;;;;;;;18.73;10.60;;;3.80;99.90;;;;;;4921771;29;20195;-72
2021/12/11 01:12:51;;;;;;;18.40;10.43;;;3.80;99.90;;;;;;4928147;29;20222;-73
2021/12/11 01:15:27;;;;;;;19.60;10.13;;;3.80;99.90;;;;;;4926393;29;20291;-74
2021/12/11 01:21:02;;;;;;;18.03;9.83;;;3.60;99.90;;;;;;4915329;29;20593;-73
2021/12/11 01:23:56;;;;;;;17.30;9.83;;;3.70;99.90;;;;;;4927094;29;20201;-72
2021/12/11 01:26:22;;;;;;;17.57;10.33;;;3.80;99.90;;;;;;4917343;29;20695;-72
2021/12/11 01:28:52;;;;;;;19.07;10.03;;;3.90;99.90;;;;;;4912253;29;20300;-73
2021/12/11 01:31:21;;;;;;;18.57;9.97;;;3.90;99.90;;;;;;4925840;29;20227;-73
2021/12/11 01:33:48;;;;;;;18.90;10.47;;;3.90;99.90;;;;;;4930965;29;20260;-73
2021/12/11 01:36:16;;;;;;;18.47;10.07;;;3.90;99.90;;;;;;4926415;29;20691;-73
2021/12/11 01:38:43;;;;;;;18.80;9.80;;;3.90;99.90;;;;;;4904419;29;20280;-73
2021/12/11 01:41:17;;;;;;;16.63;9.77;;;3.90;99.90;;;;;;4933979;29;20250;-72
2021/12/11 01:43:47;;;;;;;16.00;9.73;;;3.90;99.90;;;;;;4916269;29;20193;-73
2021/12/11 01:46:15;;;;;;;16.40;9.47;;;4.00;99.90;;;;;;4915882;29;20607;-73
2021/12/11 01:48:47;;;;;;;19.33;9.33;;;3.90;99.90;;;;;;4932262;29;20228;-75
2021/12/11 01:51:24;;;;;;;19.77;10.20;;;3.90;99.90;;;;;;4933862;29;20637;-73
2021/12/11 01:54:06;;;;;;;16.73;9.77;;;4.00;99.90;;;;;;4934873;29;20218;-73
2021/12/11 01:56:33;;;;;;;19.50;9.97;;;4.00;99.90;;;;;;4926346;29;20213;-73
2021/12/11 01:59:07;;;;;;;17.67;10.20;;;3.90;99.90;;;;;;4917135;29;20230;-73
2021/12/11 02:01:46;;;;;;;18.37;10.73;;;4.00;99.90;;;;;;4923016;29;20217;-73
2021/12/11 02:04:17;;;;;;;19.63;9.93;;;4.20;99.90;;;;;;4930678;29;20191;-74
2021/12/11 02:06:48;;;;;;;16.53;9.53;;;4.10;99.90;;;;;;4927828;29;20202;-73
2021/12/11 02:09:27;;;;;;;18.17;9.20;;;4.00;99.90;;;;;;4921717;29;20216;-73
2021/12/11 02:12:05;;;;;;;17.47;10.03;;;4.00;99.90;;;;;;4923763;29;20224;-73
2021/12/11 02:14:38;;;;;;;17.80;10.03;;;4.00;99.90;;;;;;4912920;29;20209;-73
2021/12/11 02:17:14;;;;;;;17.87;9.57;;;4.00;99.90;;;;;;4919254;29;20212;-73
2021/12/11 02:19:44;;;;;;;16.53;8.83;;;3.90;99.90;;;;;;4922290;29;20195;-73
2021/12/11 02:22:14;;;;;;;16.37;9.07;;;4.00;99.90;;;;;;4916752;29;20228;-73
2021/12/11 02:24:47;;;;;;;15.37;8.80;;;4.00;99.90;;;;;;4926399;29;20206;-73
2021/12/11 02:27:27;;;;;;;17.97;9.87;;;3.90;99.90;;;;;;4922417;29;20304;-74
2021/12/11 02:30:00;;;;;;;16.23;9.63;;;3.90;99.90;;;;;;4932714;29;20213;-73
2021/12/11 02:32:39;;;;;;;17.77;9.63;;;4.00;99.90;;;;;;4928440;29;20257;-73
2021/12/11 02:35:15;;;;;;;14.73;8.30;;;4.10;99.90;;;;;;4916246;29;20204;-73
2021/12/11 02:37:58;;;;;;;15.20;9.03;;;4.00;99.90;;;;;;4925147;29;20603;-73
2021/12/11 02:40:37;;;;;;;13.70;8.40;;;4.10;99.90;;;;;;4925162;29;20198;-74
2021/12/11 02:43:31;;;;;;;15.43;8.90;;;4.20;99.90;;;;;;4924024;29;20198;-73
2021/12/11 02:46:21;;;;;;;15.03;8.33;;;4.20;99.90;;;;;;4926452;29;20608;-73
2021/12/11 02:48:55;;;;;;;16.17;8.33;;;4.30;99.90;;;;;;4925826;29;20208;-73
2021/12/11 02:51:32;;;;;;;15.00;8.27;;;4.30;99.90;;;;;;4898937;29;20287;-73
2021/12/11 02:54:01;;;;;;;12.80;8.00;;;4.10;99.90;;;;;;4924426;29;20271;-73
2021/12/11 02:56:32;;;;;;;12.43;7.63;;;4.20;99.90;;;;;;4925941;29;20201;-73
2021/12/11 02:59:05;;;;;;;12.17;6.70;;;4.20;99.90;;;;;;4915242;29;20225;-73
2021/12/11 03:01:39;;;;;;;12.40;7.40;;;4.20;99.90;;;;;;4915295;29;20251;-73
2021/12/11 03:04:18;;;;;;;13.70;7.80;;;4.30;99.90;;;;;;4927328;29;20206;-73
2021/12/11 03:06:48;;;;;;;11.20;6.80;;;4.10;99.90;;;;;;4926095;29;20664;-75
2021/12/11 03:09:19;;;;;;;14.40;7.40;;;4.10;99.90;;;;;;4915544;29;20683;-73
2021/12/11 03:11:46;;;;;;;14.23;8.07;;;4.00;99.90;;;;;;4908824;29;20257;-75
2021/12/11 03:14:14;;;;;;;13.97;8.73;;;4.20;99.90;;;;;;4926781;29;20259;-73
2021/12/11 03:16:42;;;;;;;12.87;7.37;;;4.30;99.90;;;;;;4915890;29;20208;-73
2021/12/11 03:19:12;;;;;;;12.83;7.73;;;4.30;99.90;;;;;;4923017;29;20216;-73
2021/12/11 03:21:40;;;;;;;14.33;8.10;;;4.30;99.90;;;;;;4929577;29;20226;-75
2021/12/11 03:24:08;;;;;;;12.07;7.50;;;4.30;99.90;;;;;;4929346;29;20199;-73
2021/12/11 03:26:35;;;;;;;14.87;7.83;;;4.20;99.90;;;;;;4915521;29;20193;-73
2021/12/11 03:29:03;;;;;;;17.73;8.47;;;4.10;99.90;;;;;;4920041;29;20208;-71
2021/12/11 03:31:30;;;;;;;13.53;8.23;;;4.10;99.90;;;;;;4929933;29;20226;-73
2021/12/11 03:33:58;;;;;;;14.97;8.67;;;4.10;99.90;;;;;;4918653;29;20208;-73
2021/12/11 03:36:26;;;;;;;16.57;9.00;;;4.00;99.90;;;;;;4907453;29;20675;-73
2021/12/11 03:38:57;;;;;;;14.57;9.07;;;4.10;99.90;;;;;;4922798;29;20217;-74
2021/12/11 03:41:25;;;;;;;17.53;9.63;;;4.10;99.90;;;;;;4922835;29;20227;-73
2021/12/11 03:43:53;;;;;;;16.33;9.03;;;4.10;99.90;;;;;;4914781;29;20742;-73
2021/12/11 03:46:20;;;;;;;19.77;9.93;;;4.10;99.90;;;;;;4915118;29;20263;-73
2021/12/11 03:48:55;;;;;;;17.40;9.97;;;4.00;99.90;;;;;;4930461;29;20205;-73
2021/12/11 03:51:31;;;;;;;18.90;9.03;;;4.10;99.90;;;;;;4923155;29;20568;-73
2021/12/11 03:54:03;;;;;;;17.33;9.40;;;4.10;99.90;;;;;;4914687;29;20204;-73
2021/12/11 03:56:29;;;;;;;16.53;9.53;;;4.10;99.90;;;;;;4926854;29;20746;-73
2021/12/11 03:58:56;;;;;;;15.90;9.57;;;4.00;99.90;;;;;;4927084;29;20232;-74
2021/12/11 04:01:33;;;;;;;16.93;10.07;;;4.00;99.90;;;;;;4913993;29;20281;-73
2021/12/11 04:04:16;;;;;;;19.23;10.70;;;4.00;99.90;;;;;;4919115;29;20200;-73
2021/12/11 04:06:44;;;;;;;16.30;9.80;;;3.90;99.90;;;;;;4928228;29;20267;-73
2021/12/11 04:09:14;;;;;;;17.07;9.70;;;4.00;99.90;;;;;;4897866;29;20209;-72
2021/12/11 04:11:41;;;;;;;15.27;9.23;;;4.00;99.90;;;;;;4916054;29;20227;-73
2021/12/11 04:14:12;;;;;;;16.73;9.87;;;3.90;99.90;;;;;;4916249;29;20211;-73
2021/12/11 04:16:42;;;;;;;17.80;9.83;;;3.80;99.90;;;;;;4914564;29;20207;-73
2021/12/11 04:19:09;;;;;;;18.73;10.00;;;3.80;99.90;;;;;;4918430;29;20225;-73
2021/12/11 04:21:37;;;;;;;19.47;9.70;;;3.90;99.90;;;;;;4915286;29;20225;-73
2021/12/11 04:24:06;;;;;;;18.10;9.80;;;3.90;99.90;;;;;;4931731;29;20613;-73
2021/12/11 04:26:33;;;;;;;17.27;9.93;;;3.80;99.90;;;;;;4915303;29;20227;-73
2021/12/11 04:29:00;;;;;;;16.93;9.70;;;3.80;99.90;;;;;;4914805;29;20266;-74
2021/12/11 04:31:30;;;;;;;16.43;9.73;;;3.80;99.90;;;;;;4928839;29;20227;-73
2021/12/11 04:34:02;;;;;;;21.17;10.90;;;3.70;99.90;;;;;;4920496;29;20220;-74
2021/12/11 04:36:33;;;;;;;17.93;10.50;;;3.70;99.90;;;;;;4913977;29;20280;-74
2021/12/11 04:39:03;;;;;;;18.23;10.33;;;3.60;99.90;;;;;;4904230;29;20215;-74
2021/12/11 04:41:38;;;;;;;17.27;9.90;;;3.40;99.90;;;;;;4932299;29;20228;-74
2021/12/11 04:44:16;;;;;;;19.57;10.70;;;3.40;99.90;;;;;;4920103;29;20250;-73
2021/12/11 04:46:42;;;;;;;20.33;10.20;;;3.30;99.90;;;;;;4914245;29;20256;-75
2021/12/11 04:49:30;;;;;;;20.90;10.73;;;3.30;99.90;;;;;;4931167;29;20230;-73
2021/12/11 04:52:07;;;;;;;18.80;10.73;;;3.20;99.90;;;;;;4912347;29;20235;-74
2021/12/11 05:01:06;;;;;;;20.03;11.27;;;3.00;99.90;;;;;;4920622;29;20612;-74
2021/12/11 05:03:29;;;;;;;24.70;12.77;;;3.00;99.90;;;;;;4897940;29;20224;-73
2021/12/11 05:11:21;;;;;;;24.53;12.87;;;3.00;99.90;;;;;;4913258;29;20223;-73
2021/12/11 05:13:48;;;;;;;24.17;12.90;;;2.90;99.90;;;;;;4923972;29;20214;-73
2021/12/11 05:16:16;;;;;;;23.40;12.70;;;3.00;99.90;;;;;;4931952;29;20198;-74
2021/12/11 05:18:46;;;;;;;22.27;12.20;;;3.00;99.90;;;;;;4920005;29;20272;-73
2021/12/11 05:21:18;;;;;;;25.67;13.67;;;2.90;99.90;;;;;;4904072;29;20218;-73
2021/12/11 05:23:46;;;;;;;25.83;12.57;;;2.90;99.90;;;;;;4922978;29;20195;-73
2021/12/11 05:26:14;;;;;;;26.33;12.87;;;2.80;99.90;;;;;;4913889;29;20600;-73
2021/12/11 05:28:41;;;;;;;25.57;12.47;;;2.80;99.90;;;;;;4921167;29;20615;-73
2021/12/11 05:31:09;;;;;;;23.70;13.20;;;2.70;99.90;;;;;;4922727;29;20254;-73
2021/12/11 05:33:38;;;;;;;24.07;12.47;;;2.60;99.90;;;;;;4913660;29;20215;-74
2021/12/11 05:36:06;;;;;;;26.53;12.87;;;2.50;99.90;;;;;;4913534;29;20203;-73
2021/12/11 05:38:35;;;;;;;23.93;12.40;;;2.50;99.90;;;;;;4921957;29;20695;-73
2021/12/11 05:41:06;;;;;;;23.83;12.70;;;2.40;99.90;;;;;;4912550;29;20311;-72
2021/12/11 05:43:33;;;;;;;24.17;12.50;;;2.40;99.90;;;;;;4913219;29;20200;-74
2021/12/11 05:46:00;;;;;;;21.57;12.37;;;2.40;99.90;;;;;;4900972;29;20199;-75
2021/12/11 05:48:28;;;;;;;28.87;13.10;;;2.30;99.90;;;;;;4927533;29;20277;-73
2021/12/11 05:51:00;;;;;;;24.03;13.10;;;2.20;99.90;;;;;;4915611;29;20219;-73
2021/12/11 05:53:31;;;;;;;24.47;12.13;;;2.20;99.90;;;;;;4913563;29;20203;-73
2021/12/11 05:56:02;;;;;;;23.53;12.53;;;2.20;99.90;;;;;;4915214;29;20206;-74
2021/12/11 05:58:47;;;;;;;26.13;13.03;;;2.10;99.90;;;;;;4912076;29;20210;-73
2021/12/11 06:01:24;;;;;;;25.87;14.03;;;2.10;99.90;;;;;;4927774;29;20570;-73
2021/12/11 06:03:58;;;;;;;25.40;13.83;;;2.00;99.90;;;;;;4905082;29;20199;-73
2021/12/11 06:06:25;;;;;;;25.23;13.40;;;1.90;99.90;;;;;;4920259;29;20204;-74
2021/12/11 06:08:52;;;;;;;26.93;13.33;;;1.90;99.90;;;;;;4913362;29;20216;-71
2021/12/11 06:11:19;;;;;;;28.07;12.27;;;1.80;99.90;;;;;;4924176;29;21224;-73
2021/12/11 06:13:46;;;;;;;26.90;14.30;;;1.80;99.90;;;;;;4925417;29;20238;-73
2021/12/11 06:16:14;;;;;;;26.03;12.67;;;1.70;99.90;;;;;;4912921;29;20207;-74
2021/12/11 06:18:44;;;;;;;29.70;12.87;;;1.70;99.90;;;;;;4915777;29;20231;-75
2021/12/11 06:21:11;;;;;;;26.47;13.10;;;1.70;99.90;;;;;;4927240;29;20222;-73
2021/12/11 06:23:38;;;;;;;28.80;13.23;;;1.70;99.90;;;;;;4913425;29;20201;-73
2021/12/11 06:26:05;;;;;;;24.73;12.57;;;1.70;99.90;;;;;;4913214;29;20207;-73
2021/12/11 06:28:33;;;;;;;28.47;13.90;;;1.70;99.90;;;;;;4926241;29;20573;-73
2021/12/11 06:31:02;;;;;;;26.23;12.30;;;1.70;99.90;;;;;;4916561;29;20222;-73
2021/12/11 06:33:32;;;;;;;25.17;13.13;;;1.60;99.90;;;;;;4914457;29;20195;-72
2021/12/11 06:36:08;;;;;;;27.43;12.97;;;1.60;99.90;;;;;;4922347;29;20209;-73
2021/12/11 06:38:36;;;;;;;28.53;13.87;;;1.70;99.90;;;;;;4917878;29;20210;-73
2021/12/11 06:41:06;;;;;;;31.33;14.33;;;1.70;99.90;;;;;;4931087;29;20229;-73
2021/12/11 06:43:33;;;;;;;31.27;14.73;;;1.70;99.90;;;;;;4915999;29;20484;-73
2021/12/11 06:46:00;;;;;;;30.60;14.50;;;1.60;99.90;;;;;;4915688;29;20234;-71
2021/12/11 06:48:27;;;;;;;30.03;13.53;;;1.60;99.90;;;;;;4925491;29;20224;-73
2021/12/11 06:50:56;;;;;;;26.73;13.17;;;1.60;99.90;;;;;;4898777;29;20219;-71
2021/12/11 06:53:45;;;;;;;28.60;13.77;;;1.60;99.90;;;;;;4921895;29;20209;-73
2021/12/11 06:56:13;;;;;;;28.47;14.47;;;1.50;99.90;;;;;;4921938;29;20214;-72
2021/12/11 06:58:40;;;;;;;31.10;13.80;;;1.50;99.90;;;;;;4915361;29;20214;-72
2021/12/11 07:01:09;;;;;;;28.20;14.17;;;1.60;99.90;;;;;;4920726;29;20211;-71
2021/12/11 07:03:38;;;;;;;30.23;14.37;;;1.70;99.90;;;;;;4932242;29;20205;-72
2021/12/11 07:06:07;;;;;;;27.53;13.97;;;1.80;99.90;;;;;;4928711;29;20197;-72
2021/12/11 07:08:36;;;;;;;30.60;14.57;;;1.70;99.90;;;;;;4917698;29;20207;-71
2021/12/11 07:11:04;;;;;;;31.43;14.77;;;1.60;99.90;;;;;;4928062;29;20226;-72
2021/12/11 07:13:30;;;;;;;31.53;14.50;;;1.60;99.90;;;;;;4916153;29;20209;-73
2021/12/11 07:15:57;;;;;;;29.37;14.13;;;1.50;99.90;;;;;;4924876;29;20229;-72
2021/12/11 07:18:25;;;;;;;31.07;13.87;;;1.60;99.90;;;;;;4921240;29;20234;-72
2021/12/11 07:20:51;;;;;;;31.63;14.53;;;1.50;99.90;;;;;;4933686;29;20226;-72
2021/12/11 07:23:18;;;;;;;28.87;14.27;;;1.60;99.90;;;;;;4919836;29;20203;-72
2021/12/11 07:25:48;;;;;;;26.10;13.97;;;1.70;99.90;;;;;;4929981;29;20206;-72
2021/12/11 07:28:15;;;;;;;28.33;13.63;;;1.70;99.90;;;;;;4932614;29;20200;-72
2021/12/11 07:30:45;;;;;;;25.50;12.67;;;1.60;99.90;;;;;;4924281;29;20654;-71
2021/12/11 07:33:14;;;;;;;33.33;14.73;;;1.80;99.90;;;;;;4915282;29;20218;-72
2021/12/11 07:35:42;;;;;;;31.70;14.13;;;1.80;99.90;;;;;;4930035;29;20216;-71
2021/12/11 07:38:10;;;;;;;31.00;15.07;;;1.80;99.90;;;;;;4916771;29;20274;-70
2021/12/11 07:40:41;;;;;;;29.97;14.23;;;1.70;99.90;;;;;;4913582;29;20652;-71
2021/12/11 07:43:10;;;;;;;29.77;13.73;;;1.70;99.90;;;;;;4926253;29;20194;-71
2021/12/11 07:45:37;;;;;;;30.33;13.33;;;1.60;99.90;;;;;;4915937;29;20295;-72
2021/12/11 07:48:05;;;;;;;31.27;14.67;;;1.60;99.90;;;;;;4914998;29;20204;-71
2021/12/11 07:50:32;;;;;;;28.50;13.97;;;1.60;99.90;;;;;;4915148;29;20210;-71
2021/12/11 07:53:00;;;;;;;32.67;15.40;;;1.60;99.90;;;;;;4933707;29;20206;-72
2021/12/11 07:55:27;;;;;;;31.30;14.87;;;1.90;99.90;;;;;;4919666;29;20710;-72
2021/12/11 07:57:53;;;;;;;35.13;14.33;;;1.90;99.90;;;;;;4914571;29;20206;-73
2021/12/11 08:00:23;;;;;;;31.23;15.07;;;1.80;99.90;;;;;;4917823;29;20232;-71
2021/12/11 08:02:50;;;;;;;34.60;15.03;;;1.90;99.90;;;;;;4924189;29;20199;-72
2021/12/11 08:05:18;;;;;;;37.03;16.00;;;2.20;99.90;;;;;;4914682;29;20202;-71
2021/12/11 08:07:44;;;;;;;38.20;15.30;;;2.20;99.90;;;;;;4915075;29;20500;-70
2021/12/11 08:10:17;;;;;;;35.53;15.60;;;2.20;99.90;;;;;;4907536;29;20198;-71
2021/12/11 08:12:45;;;;;;;33.33;14.27;;;2.20;99.90;;;;;;4924844;29;20204;-71
2021/12/11 08:15:14;;;;;;;28.83;14.47;;;2.10;99.90;;;;;;4916539;29;20580;-71
2021/12/11 08:17:41;;;;;;;35.13;15.63;;;2.10;99.90;;;;;;4926295;29;20194;-74
2021/12/11 08:20:11;;;;;;;34.33;15.57;;;2.20;99.90;;;;;;4928033;29;20286;-71
2021/12/11 08:22:38;;;;;;;34.60;15.10;;;2.20;99.90;;;;;;4897573;29;20214;-72
2021/12/11 08:25:06;;;;;;;36.43;16.23;;;2.30;99.90;;;;;;4914283;29;20204;-73
2021/12/11 08:27:34;;;;;;;39.10;15.90;;;2.50;99.90;;;;;;4925823;29;20195;-72
2021/12/11 08:30:01;;;;;;;35.40;15.60;;;2.60;99.90;;;;;;4927842;29;20298;-72
2021/12/11 08:32:27;;;;;;;38.90;16.87;;;2.60;99.90;;;;;;4913761;29;20308;-73
2021/12/11 08:34:54;;;;;;;35.47;16.37;;;2.70;99.90;;;;;;4927674;29;20203;-73
2021/12/11 08:37:22;;;;;;;33.17;15.17;;;2.80;99.90;;;;;;4921504;29;20206;-72
2021/12/11 08:39:51;;;;;;;35.60;16.13;;;2.90;99.90;;;;;;4916120;29;20611;-72
2021/12/11 08:42:21;;;;;;;35.07;15.37;;;3.10;99.90;;;;;;4917531;29;20294;-72
2021/12/11 08:44:52;;;;;;;32.23;15.60;;;3.10;99.90;;;;;;4925151;29;20203;-72
2021/12/11 08:47:21;;;;;;;36.70;15.17;;;3.00;99.90;;;;;;4914183;29;20219;-74
2021/12/11 08:49:50;;;;;;;37.57;16.47;;;2.90;99.90;;;;;;4913675;29;20210;-73
2021/12/11 08:52:22;;;;;;;32.67;15.23;;;3.00;99.90;;;;;;4924183;29;20273;-73
2021/12/11 08:54:49;;;;;;;35.87;14.90;;;3.10;99.90;;;;;;4925850;29;20203;-72
2021/12/11 08:57:22;;;;;;;34.80;15.77;;;3.20;99.90;;;;;;4912938;29;20218;-72
2021/12/11 08:59:53;;;;;;;33.07;15.37;;;3.50;99.90;;;;;;4926933;29;20231;-72
2021/12/11 09:02:26;;;;;;;33.83;15.50;;;3.70;99.90;;;;;;4927075;29;20221;-75
2021/12/11 09:05:18;;;;;;;33.83;15.63;;;4.00;99.90;;;;;;4926504;29;20264;-70
2021/12/11 09:07:52;;;;;;;31.83;14.93;;;4.20;99.90;;;;;;4913374;29;20667;-72
2021/12/11 09:10:29;;;;;;;31.57;14.97;;;4.50;99.90;;;;;;4926363;29;20200;-72
2021/12/11 09:13:06;;;;;;;32.90;15.03;;;4.60;99.90;;;;;;4926152;29;20889;-72
2021/12/11 09:15:51;;;;;;;32.00;14.93;;;4.90;99.90;;;;;;4918934;29;20204;-72
2021/12/11 09:18:29;;;;;;;29.53;14.20;;;5.10;99.90;;;;;;4911875;29;20195;-72
2021/12/11 09:21:05;;;;;;;25.97;13.10;;;5.30;99.90;;;;;;4913518;29;20228;-72
2021/12/11 09:23:38;;;;;;;27.97;13.70;;;5.40;99.90;;;;;;4896993;29;20199;-73
2021/12/11 09:26:13;;;;;;;30.23;13.97;;;5.50;99.90;;;;;;4925198;29;20198;-72
2021/12/11 09:28:59;;;;;;;27.70;13.23;;;5.60;99.90;;;;;;4927320;29;20645;-71
2021/12/11 09:31:32;;;;;;;27.43;13.27;;;5.60;99.90;;;;;;4914064;29;20224;-73
2021/12/11 09:34:10;;;;;;;32.73;13.63;;;5.70;99.90;;;;;;4913946;29;20214;-76
2021/12/11 09:36:46;;;;;;;28.20;13.47;;;5.80;99.90;;;;;;4911757;29;20576;-71
2021/12/11 09:39:27;;;;;;;28.40;13.63;;;5.70;99.90;;;;;;4925247;29;20203;-71
2021/12/11 09:41:53;;;;;;;28.67;14.17;;;5.60;99.90;;;;;;4913126;29;20263;-72
2021/12/11 09:44:30;;;;;;;23.60;12.40;;;5.60;99.90;;;;;;4918916;29;20207;-71
2021/12/11 09:47:10;;;;;;;26.77;12.27;;;5.40;99.90;;;;;;4930605;29;20194;-73
2021/12/11 09:49:42;;;;;;;24.20;12.70;;;5.30;99.90;;;;;;4922460;29;20642;-72
2021/12/11 09:52:18;;;;;;;25.40;12.53;;;5.30;99.90;;;;;;4913327;29;20224;-73
2021/12/11 09:54:49;;;;;;;23.47;12.03;;;5.30;99.90;;;;;;4922858;29;20202;-72
2021/12/11 09:57:19;;;;;;;26.20;12.30;;;5.40;99.90;;;;;;4925486;29;20212;-71
2021/12/11 09:59:49;;;;;;;26.57;11.47;;;5.60;99.90;;;;;;4918140;29;20230;-73
2021/12/11 10:02:27;;;;;;;21.17;10.23;;;5.70;99.90;;;;;;4913100;29;20638;-74
2021/12/11 10:05:04;;;;;;;19.43;8.93;;;5.90;99.90;;;;;;4929358;29;20207;-74
2021/12/11 10:07:38;;;;;;;18.13;8.87;;;5.90;99.90;;;;;;4925535;29;20195;-73
2021/12/11 10:10:08;;;;;;;22.87;8.93;;;6.00;99.90;;;;;;4916417;29;20213;-74
2021/12/11 10:12:39;;;;;;;15.43;8.00;;;6.00;99.90;;;;;;4925206;29;20223;-71
2021/12/11 10:15:14;;;;;;;16.00;8.33;;;5.90;99.90;;;;;;4924964;29;20203;-73
2021/12/11 10:17:49;;;;;;;16.43;8.43;;;5.80;99.90;;;;;;4931399;29;20202;-74
2021/12/11 10:20:22;;;;;;;18.23;8.97;;;5.80;99.90;;;;;;4920014;29;20215;-74
2021/12/11 10:22:51;;;;;;;18.60;8.90;;;5.80;99.90;;;;;;4933209;29;20258;-72
2021/12/11 10:25:22;;;;;;;15.47;8.27;;;5.90;99.90;;;;;;4931631;29;20200;-72
2021/12/11 10:27:49;;;;;;;19.17;8.87;;;5.90;99.90;;;;;;4926545;29;20203;-73
2021/12/11 10:30:22;;;;;;;16.50;9.00;;;6.10;99.90;;;;;;4934686;29;20207;-73
2021/12/11 10:32:50;;;;;;;16.90;8.80;;;6.40;99.90;;;;;;4935752;29;20710;-72
2021/12/11 10:35:21;;;;;;;15.47;8.37;;;6.60;99.90;;;;;;4917607;29;20195;-72
2021/12/11 10:37:48;;;;;;;17.20;8.60;;;6.80;99.90;;;;;;4924844;29;20211;-72
2021/12/11 10:40:28;;;;;;;17.47;8.57;;;6.80;99.90;;;;;;4928839;29;20223;-72
2021/12/11 10:43:04;;;;;;;17.10;8.50;;;6.50;99.90;;;;;;4917850;29;20274;-72
2021/12/11 10:45:31;;;;;;;13.80;8.00;;;6.50;99.90;;;;;;4916392;29;20255;-72
2021/12/11 10:48:04;;;;;;;15.77;8.33;;;6.30;99.90;;;;;;4923238;29;20199;-72
2021/12/11 10:50:40;;;;;;;15.13;8.03;;;6.50;99.90;;;;;;4917732;29;20195;-71
2021/12/11 10:53:10;;;;;;;17.90;8.27;;;6.70;99.90;;;;;;4931722;29;20224;-71
2021/12/11 10:55:38;;;;;;;18.50;9.00;;;6.80;99.90;;;;;;4917516;29;20260;-73
2021/12/11 10:58:15;;;;;;;19.43;9.30;;;7.20;99.90;;;;;;4923509;29;20259;-72
2021/12/11 11:00:53;;;;;;;16.87;9.77;;;7.40;99.90;;;;;;4919386;29;20244;-72
2021/12/11 11:03:21;;;;;;;16.17;7.87;;;7.60;99.90;;;;;;4916069;29;20668;-72
2021/12/11 11:05:48;;;;;;;16.93;8.77;;;7.40;99.90;;;;;;4929056;29;20196;-72
2021/12/11 11:08:15;;;;;;;14.90;8.97;;;7.50;99.90;;;;;;4932185;29;20198;-72
2021/12/11 11:10:49;;;;;;;16.07;9.70;;;7.50;99.90;;;;;;4919671;29;20225;-72
2021/12/11 11:13:16;;;;;;;17.40;8.70;;;7.60;99.90;;;;;;4908658;29;20225;-72
2021/12/11 11:15:43;;;;;;;15.57;8.33;;;7.60;99.90;;;;;;4927262;29;20228;-73
2021/12/11 11:18:14;;;;;;;13.73;7.63;;;7.50;99.90;;;;;;4915676;29;20207;-74
2021/12/11 11:20:47;;;;;;;13.80;7.67;;;7.40;99.90;;;;;;4930840;29;20225;-74
2021/12/11 11:23:14;;;;;;;16.37;7.27;;;7.50;99.90;;;;;;4915287;29;20213;-73
2021/12/11 11:25:46;;;;;;;12.33;6.97;;;7.50;99.90;;;;;;4915421;29;20742;-75
2021/12/11 11:28:20;;;;;;;10.97;6.43;;;7.60;99.90;;;;;;4915666;29;20199;-73
2021/12/11 11:30:57;;;;;;;12.07;7.10;;;7.80;99.90;;;;;;4930279;29;20331;-72
2021/12/11 11:33:27;;;;;;;15.63;7.63;;;7.90;99.90;;;;;;4915922;29;20206;-74
2021/12/11 11:35:55;;;;;;;14.57;7.33;;;8.10;99.90;;;;;;4917306;29;20762;-73
2021/12/11 11:38:28;;;;;;;11.57;6.63;;;8.20;99.90;;;;;;4931163;29;20202;-73
2021/12/11 11:40:59;;;;;;;12.47;6.63;;;8.20;99.90;;;;;;4918041;29;20313;-72
2021/12/11 11:43:26;;;;;;;13.17;7.10;;;8.20;99.90;;;;;;4915320;29;20207;-73
2021/12/11 11:45:53;;;;;;;9.77;6.30;;;8.30;99.90;;;;;;4916935;29;20261;-73
2021/12/11 11:48:29;;;;;;;13.27;7.03;;;8.30;99.90;;;;;;4931486;29;20201;-73
2021/12/11 11:51:28;;;;;;;13.60;7.80;;;8.10;99.90;;;;;;4913478;29;20641;-73
2021/12/11 11:53:55;;;;;;;11.43;6.90;;;8.00;99.90;;;;;;4914357;29;20205;-73
2021/12/11 11:56:28;;;;;;;12.73;6.33;;;7.90;99.90;;;;;;4922080;29;20706;-73
2021/12/11 11:58:56;;;;;;;11.13;6.70;;;7.90;99.90;;;;;;4930711;29;20578;-73
2021/12/11 12:01:28;;;;;;;14.03;6.60;;;7.70;99.90;;;;;;4916318;29;20241;-72
2021/12/11 12:03:56;;;;;;;11.37;6.83;;;7.60;99.90;;;;;;4914691;29;20230;-73
2021/12/11 12:06:25;;;;;;;18.20;8.03;;;7.60;99.90;;;;;;4928217;29;20211;-73
2021/12/11 12:08:55;;;;;;;15.40;7.83;;;7.30;99.90;;;;;;4930535;29;20256;-74
2021/12/11 12:11:24;;;;;;;13.70;7.00;;;7.30;99.90;;;;;;4916687;29;20232;-74
2021/12/11 12:13:51;;;;;;;13.23;7.50;;;7.30;99.90;;;;;;4922727;29;20257;-72
2021/12/11 12:16:28;;;;;;;13.10;7.80;;;7.30;99.90;;;;;;4932218;29;20201;-73
2021/12/11 12:18:55;;;;;;;13.53;7.20;;;7.30;99.90;;;;;;4927229;29;20704;-73
2021/12/11 12:21:22;;;;;;;13.80;7.53;;;7.30;99.90;;;;;;4923316;29;20235;-71
2021/12/11 12:23:49;;;;;;;14.53;7.50;;;7.00;99.90;;;;;;4929149;29;20726;-72
2021/12/11 12:26:23;;;;;;;13.27;7.90;;;6.80;99.90;;;;;;4914373;29;20199;-72
2021/12/11 12:28:52;;;;;;;16.37;8.47;;;6.80;99.90;;;;;;4914497;29;20212;-72
2021/12/11 12:31:30;;;;;;;16.27;8.30;;;6.60;99.90;;;;;;4920803;29;20222;-72
2021/12/11 12:33:57;;;;;;;15.13;8.33;;;6.70;99.90;;;;;;4927843;29;20676;-72
2021/12/11 12:36:25;;;;;;;17.27;9.10;;;6.70;99.90;;;;;;4931288;29;20669;-74
2021/12/11 12:38:52;;;;;;;15.63;7.90;;;6.70;99.90;;;;;;4931523;29;20575;-73
2021/12/11 12:41:26;;;;;;;14.30;7.97;;;6.80;99.90;;;;;;4925179;29;20224;-73
2021/12/11 12:44:18;;;;;;;16.73;8.80;;;6.80;99.90;;;;;;4927779;29;20610;-73
2021/12/11 12:46:57;;;;;;;17.73;8.47;;;6.80;99.90;;;;;;4903741;29;20199;-73
2021/12/11 12:49:29;;;;;;;17.17;9.30;;;6.70;99.90;;;;;;4918154;29;20200;-73
2021/12/11 12:52:03;;;;;;;16.80;9.37;;;6.80;99.90;;;;;;4924804;29;20231;-74
2021/12/11 12:54:30;;;;;;;16.50;8.10;;;6.90;99.90;;;;;;4925059;29;20199;-73
2021/12/11 12:57:13;;;;;;;14.57;8.50;;;6.80;99.90;;;;;;4913610;29;20208;-72
2021/12/11 13:00:03;;;;;;;14.10;7.83;;;6.80;99.90;;;;;;4922754;29;20458;-73
2021/12/11 13:02:31;;;;;;;14.83;8.57;;;6.60;99.90;;;;;;4925205;29;20289;-73
2021/12/11 13:05:16;;;;;;;17.30;7.97;;;6.60;99.90;;;;;;4915161;29;20208;-73
2021/12/11 13:08:03;;;;;;;19.57;8.97;;;6.70;99.90;;;;;;4930714;29;20240;-73
2021/12/11 13:10:36;;;;;;;16.47;8.83;;;6.70;99.90;;;;;;4925570;29;20732;-73
2021/12/11 13:13:11;;;;;;;15.33;8.63;;;6.70;99.90;;;;;;4913491;29;20203;-70
2021/12/11 13:15:44;;;;;;;13.30;8.03;;;6.70;99.90;;;;;;4921068;29;20402;-73
2021/12/11 13:18:17;;;;;;;14.53;8.50;;;6.70;99.90;;;;;;4924338;29;20679;-73